sensor_id;sensor_type;location;lat;lon;timestamp;P1;durP1;ratioP1;P2;durP2;ratioP2
19107;SDS011;9686;48.832;9.126;2022-07-23T00:02:19;4.23;;;3.83;;
19107;SDS011;9686;48.832;9.126;2022-07-23T00:04:44;4.17;;;3.47;;
19107;SDS011;9686;48.832;9.126;2022-07-23T00:07:10;3.90;;;3.50;;
19107;SDS011;9686;48.832;9.126;2022-07-23T00:09:35;3.83;;;3.47;;
19107;SDS011;9686;48.832;9.126;2022-07-23T00:12:01;4.00;;;3.70;;
19107;SDS011;9686;48.832;9.126;2022-07-23T00:14:26;3.77;;;3.47;;
19107;SDS011;9686;48.832;9.126;2022-07-23T00:16:51;4.03;;;3.60;;
19107;SDS011;9686;48.832;9.126;2022-07-23T00:19:17;5.53;;;4.00;;
19107;SDS011;9686;48.832;9.126;2022-07-23T00:21:42;4.93;;;3.70;;
19107;SDS011;9686;48.832;9.126;2022-07-23T00:24:07;5.43;;;4.23;;
19107;SDS011;9686;48.832;9.126;2022-07-23T00:26:33;3.60;;;3.30;;
19107;SDS011;9686;48.832;9.126;2022-07-23T00:28:58;4.20;;;3.70;;
19107;SDS011;9686;48.832;9.126;2022-07-23T00:31:24;3.97;;;3.60;;
19107;SDS011;9686;48.832;9.126;2022-07-23T00:33:49;3.73;;;3.43;;
19107;SDS011;9686;48.832;9.126;2022-07-23T00:36:14;3.90;;;3.57;;
19107;SDS011;9686;48.832;9.126;2022-07-23T00:38:40;3.80;;;3.50;;
19107;SDS011;9686;48.832;9.126;2022-07-23T00:41:05;3.87;;;3.50;;
19107;SDS011;9686;48.832;9.126;2022-07-23T00:43:30;4.23;;;3.83;;
19107;SDS011;9686;48.832;9.126;2022-07-23T00:45:56;4.17;;;3.77;;
19107;SDS011;9686;48.832;9.126;2022-07-23T00:48:21;3.97;;;3.57;;
19107;SDS011;9686;48.832;9.126;2022-07-23T00:50:46;4.10;;;3.70;;
19107;SDS011;9686;48.832;9.126;2022-07-23T00:53:12;3.60;;;3.30;;
19107;SDS011;9686;48.832;9.126;2022-07-23T00:55:37;4.20;;;3.80;;
19107;SDS011;9686;48.832;9.126;2022-07-23T00:58:04;4.27;;;3.87;;
19107;SDS011;9686;48.832;9.126;2022-07-23T01:00:29;5.00;;;3.73;;
19107;SDS011;9686;48.832;9.126;2022-07-23T01:02:55;4.10;;;3.70;;
19107;SDS011;9686;48.832;9.126;2022-07-23T01:05:21;3.77;;;3.47;;
19107;SDS011;9686;48.832;9.126;2022-07-23T01:07:49;3.93;;;3.50;;
19107;SDS011;9686;48.832;9.126;2022-07-23T01:10:15;6.30;;;4.43;;
19107;SDS011;9686;48.832;9.126;2022-07-23T01:12:56;4.30;;;3.90;;
19107;SDS011;9686;48.832;9.126;2022-07-23T01:15:22;4.97;;;4.17;;
19107;SDS011;9686;48.832;9.126;2022-07-23T01:17:48;3.83;;;3.40;;
19107;SDS011;9686;48.832;9.126;2022-07-23T01:20:14;4.57;;;4.07;;
19107;SDS011;9686;48.832;9.126;2022-07-23T01:22:39;5.50;;;4.90;;
19107;SDS011;9686;48.832;9.126;2022-07-23T01:25:05;4.30;;;3.90;;
19107;SDS011;9686;48.832;9.126;2022-07-23T01:27:31;3.97;;;3.53;;
19107;SDS011;9686;48.832;9.126;2022-07-23T01:29:56;4.30;;;3.90;;
19107;SDS011;9686;48.832;9.126;2022-07-23T01:32:22;4.20;;;3.77;;
19107;SDS011;9686;48.832;9.126;2022-07-23T01:34:47;4.00;;;3.70;;
19107;SDS011;9686;48.832;9.126;2022-07-23T01:37:13;3.97;;;3.60;;
19107;SDS011;9686;48.832;9.126;2022-07-23T01:39:38;3.60;;;3.30;;
19107;SDS011;9686;48.832;9.126;2022-07-23T01:42:04;3.90;;;3.60;;
19107;SDS011;9686;48.832;9.126;2022-07-23T01:44:29;4.10;;;3.80;;
19107;SDS011;9686;48.832;9.126;2022-07-23T01:46:56;3.97;;;3.57;;
19107;SDS011;9686;48.832;9.126;2022-07-23T01:49:21;4.93;;;4.53;;
19107;SDS011;9686;48.832;9.126;2022-07-23T01:51:47;4.10;;;3.80;;
19107;SDS011;9686;48.832;9.126;2022-07-23T01:54:28;4.77;;;4.27;;
19107;SDS011;9686;48.832;9.126;2022-07-23T01:56:56;4.20;;;3.80;;
19107;SDS011;9686;48.832;9.126;2022-07-23T01:59:22;4.30;;;3.90;;
19107;SDS011;9686;48.832;9.126;2022-07-23T02:01:47;3.97;;;3.63;;
19107;SDS011;9686;48.832;9.126;2022-07-23T02:04:15;4.07;;;3.63;;
19107;SDS011;9686;48.832;9.126;2022-07-23T02:06:41;4.20;;;3.80;;
19107;SDS011;9686;48.832;9.126;2022-07-23T02:09:06;4.10;;;3.70;;
19107;SDS011;9686;48.832;9.126;2022-07-23T02:11:31;4.10;;;3.80;;
19107;SDS011;9686;48.832;9.126;2022-07-23T02:13:57;4.37;;;3.97;;
19107;SDS011;9686;48.832;9.126;2022-07-23T02:16:22;4.40;;;4.00;;
19107;SDS011;9686;48.832;9.126;2022-07-23T02:18:47;4.57;;;4.13;;
19107;SDS011;9686;48.832;9.126;2022-07-23T02:21:13;4.47;;;4.07;;
19107;SDS011;9686;48.832;9.126;2022-07-23T02:23:38;6.20;;;4.13;;
19107;SDS011;9686;48.832;9.126;2022-07-23T02:26:03;4.40;;;4.00;;
19107;SDS011;9686;48.832;9.126;2022-07-23T02:28:29;4.50;;;4.10;;
19107;SDS011;9686;48.832;9.126;2022-07-23T02:30:54;4.60;;;4.20;;
19107;SDS011;9686;48.832;9.126;2022-07-23T02:33:20;4.70;;;4.30;;
19107;SDS011;9686;48.832;9.126;2022-07-23T02:35:45;5.07;;;4.13;;
19107;SDS011;9686;48.832;9.126;2022-07-23T02:38:10;4.60;;;4.20;;
19107;SDS011;9686;48.832;9.126;2022-07-23T02:40:36;4.67;;;4.27;;
19107;SDS011;9686;48.832;9.126;2022-07-23T02:43:01;6.43;;;4.00;;
19107;SDS011;9686;48.832;9.126;2022-07-23T02:45:27;4.47;;;4.07;;
19107;SDS011;9686;48.832;9.126;2022-07-23T02:47:52;5.20;;;3.73;;
19107;SDS011;9686;48.832;9.126;2022-07-23T02:50:17;4.20;;;3.80;;
19107;SDS011;9686;48.832;9.126;2022-07-23T02:52:43;4.87;;;4.00;;
19107;SDS011;9686;48.832;9.126;2022-07-23T02:55:08;4.43;;;4.03;;
19107;SDS011;9686;48.832;9.126;2022-07-23T02:57:34;6.37;;;4.33;;
19107;SDS011;9686;48.832;9.126;2022-07-23T02:59:59;4.30;;;3.90;;
19107;SDS011;9686;48.832;9.126;2022-07-23T03:02:24;5.17;;;4.57;;
19107;SDS011;9686;48.832;9.126;2022-07-23T03:04:50;4.60;;;4.20;;
19107;SDS011;9686;48.832;9.126;2022-07-23T03:07:17;4.80;;;4.40;;
19107;SDS011;9686;48.832;9.126;2022-07-23T03:09:42;4.90;;;4.50;;
19107;SDS011;9686;48.832;9.126;2022-07-23T03:12:08;4.57;;;4.17;;
19107;SDS011;9686;48.832;9.126;2022-07-23T03:14:33;5.27;;;4.87;;
19107;SDS011;9686;48.832;9.126;2022-07-23T03:16:59;4.37;;;4.07;;
19107;SDS011;9686;48.832;9.126;2022-07-23T03:19:25;4.83;;;4.37;;
19107;SDS011;9686;48.832;9.126;2022-07-23T03:21:51;4.40;;;4.00;;
19107;SDS011;9686;48.832;9.126;2022-07-23T03:24:16;4.50;;;4.10;;
19107;SDS011;9686;48.832;9.126;2022-07-23T03:26:43;4.87;;;4.30;;
19107;SDS011;9686;48.832;9.126;2022-07-23T03:29:09;4.73;;;4.33;;
19107;SDS011;9686;48.832;9.126;2022-07-23T03:31:34;4.97;;;4.50;;
19107;SDS011;9686;48.832;9.126;2022-07-23T03:34:00;5.97;;;5.13;;
19107;SDS011;9686;48.832;9.126;2022-07-23T03:36:26;4.53;;;4.10;;
19107;SDS011;9686;48.832;9.126;2022-07-23T03:38:52;5.30;;;4.20;;
19107;SDS011;9686;48.832;9.126;2022-07-23T03:41:18;5.03;;;4.40;;
19107;SDS011;9686;48.832;9.126;2022-07-23T03:43:44;5.40;;;4.70;;
19107;SDS011;9686;48.832;9.126;2022-07-23T03:46:09;4.60;;;4.10;;
19107;SDS011;9686;48.832;9.126;2022-07-23T03:48:35;5.20;;;4.33;;
19107;SDS011;9686;48.832;9.126;2022-07-23T03:51:00;5.80;;;4.93;;
19107;SDS011;9686;48.832;9.126;2022-07-23T03:53:26;5.57;;;4.57;;
19107;SDS011;9686;48.832;9.126;2022-07-23T03:55:51;6.33;;;4.70;;
19107;SDS011;9686;48.832;9.126;2022-07-23T03:58:17;4.60;;;4.20;;
19107;SDS011;9686;48.832;9.126;2022-07-23T04:00:42;5.60;;;4.40;;
19107;SDS011;9686;48.832;9.126;2022-07-23T04:03:07;5.43;;;4.60;;
19107;SDS011;9686;48.832;9.126;2022-07-23T04:05:32;4.40;;;4.00;;
19107;SDS011;9686;48.832;9.126;2022-07-23T04:07:58;4.67;;;4.27;;
19107;SDS011;9686;48.832;9.126;2022-07-23T04:10:24;4.73;;;4.33;;
19107;SDS011;9686;48.832;9.126;2022-07-23T04:12:49;4.30;;;3.90;;
19107;SDS011;9686;48.832;9.126;2022-07-23T04:15:14;5.40;;;4.90;;
19107;SDS011;9686;48.832;9.126;2022-07-23T04:17:40;4.40;;;4.00;;
19107;SDS011;9686;48.832;9.126;2022-07-23T04:20:05;4.47;;;4.10;;
19107;SDS011;9686;48.832;9.126;2022-07-23T04:22:31;4.90;;;4.40;;
19107;SDS011;9686;48.832;9.126;2022-07-23T04:24:56;6.73;;;4.77;;
19107;SDS011;9686;48.832;9.126;2022-07-23T04:27:21;4.73;;;3.93;;
19107;SDS011;9686;48.832;9.126;2022-07-23T04:29:47;5.30;;;4.23;;
19107;SDS011;9686;48.832;9.126;2022-07-23T04:32:12;5.10;;;4.47;;
19107;SDS011;9686;48.832;9.126;2022-07-23T04:34:37;4.60;;;4.20;;
19107;SDS011;9686;48.832;9.126;2022-07-23T04:37:03;5.00;;;4.50;;
19107;SDS011;9686;48.832;9.126;2022-07-23T04:39:28;4.80;;;4.37;;
19107;SDS011;9686;48.832;9.126;2022-07-23T04:41:54;4.80;;;4.40;;
19107;SDS011;9686;48.832;9.126;2022-07-23T04:44:19;5.00;;;4.43;;
19107;SDS011;9686;48.832;9.126;2022-07-23T04:46:44;5.10;;;4.60;;
19107;SDS011;9686;48.832;9.126;2022-07-23T04:49:10;5.07;;;4.57;;
19107;SDS011;9686;48.832;9.126;2022-07-23T04:51:35;5.20;;;4.70;;
19107;SDS011;9686;48.832;9.126;2022-07-23T04:54:00;4.87;;;4.37;;
19107;SDS011;9686;48.832;9.126;2022-07-23T04:56:26;4.93;;;4.43;;
19107;SDS011;9686;48.832;9.126;2022-07-23T04:58:51;4.73;;;4.17;;
19107;SDS011;9686;48.832;9.126;2022-07-23T05:01:16;4.83;;;4.43;;
19107;SDS011;9686;48.832;9.126;2022-07-23T05:03:42;5.00;;;4.50;;
19107;SDS011;9686;48.832;9.126;2022-07-23T05:06:07;4.60;;;4.20;;
19107;SDS011;9686;48.832;9.126;2022-07-23T05:08:33;5.40;;;4.90;;
19107;SDS011;9686;48.832;9.126;2022-07-23T05:10:58;4.83;;;4.43;;
19107;SDS011;9686;48.832;9.126;2022-07-23T05:13:24;5.83;;;4.60;;
19107;SDS011;9686;48.832;9.126;2022-07-23T05:15:49;5.43;;;4.80;;
19107;SDS011;9686;48.832;9.126;2022-07-23T05:18:14;5.10;;;4.60;;
19107;SDS011;9686;48.832;9.126;2022-07-23T05:20:40;4.70;;;4.20;;
19107;SDS011;9686;48.832;9.126;2022-07-23T05:23:05;4.40;;;4.00;;
19107;SDS011;9686;48.832;9.126;2022-07-23T05:25:32;5.73;;;4.27;;
19107;SDS011;9686;48.832;9.126;2022-07-23T05:27:57;4.83;;;4.33;;
19107;SDS011;9686;48.832;9.126;2022-07-23T05:30:22;5.03;;;4.63;;
19107;SDS011;9686;48.832;9.126;2022-07-23T05:32:48;4.70;;;4.20;;
19107;SDS011;9686;48.832;9.126;2022-07-23T05:35:13;5.53;;;4.97;;
19107;SDS011;9686;48.832;9.126;2022-07-23T05:37:38;7.07;;;5.10;;
19107;SDS011;9686;48.832;9.126;2022-07-23T05:40:04;5.50;;;4.87;;
19107;SDS011;9686;48.832;9.126;2022-07-23T05:42:32;5.20;;;4.70;;
19107;SDS011;9686;48.832;9.126;2022-07-23T05:44:58;5.10;;;4.67;;
19107;SDS011;9686;48.832;9.126;2022-07-23T05:47:23;5.37;;;4.60;;
19107;SDS011;9686;48.832;9.126;2022-07-23T05:49:49;5.17;;;4.67;;
19107;SDS011;9686;48.832;9.126;2022-07-23T05:52:14;5.30;;;4.80;;
19107;SDS011;9686;48.832;9.126;2022-07-23T05:54:39;5.83;;;4.73;;
19107;SDS011;9686;48.832;9.126;2022-07-23T05:57:05;5.00;;;4.53;;
19107;SDS011;9686;48.832;9.126;2022-07-23T05:59:30;5.77;;;4.90;;
19107;SDS011;9686;48.832;9.126;2022-07-23T06:01:55;6.00;;;5.07;;
19107;SDS011;9686;48.832;9.126;2022-07-23T06:04:21;5.97;;;5.37;;
19107;SDS011;9686;48.832;9.126;2022-07-23T06:06:46;6.97;;;5.00;;
19107;SDS011;9686;48.832;9.126;2022-07-23T06:09:12;5.50;;;5.00;;
19107;SDS011;9686;48.832;9.126;2022-07-23T06:11:38;5.60;;;5.10;;
19107;SDS011;9686;48.832;9.126;2022-07-23T06:14:04;5.23;;;4.73;;
19107;SDS011;9686;48.832;9.126;2022-07-23T06:16:29;5.53;;;5.03;;
19107;SDS011;9686;48.832;9.126;2022-07-23T06:18:55;5.60;;;4.90;;
19107;SDS011;9686;48.832;9.126;2022-07-23T06:21:20;5.13;;;4.27;;
19107;SDS011;9686;48.832;9.126;2022-07-23T06:23:45;4.53;;;4.13;;
19107;SDS011;9686;48.832;9.126;2022-07-23T06:26:11;5.30;;;4.60;;
19107;SDS011;9686;48.832;9.126;2022-07-23T06:28:36;5.07;;;4.57;;
19107;SDS011;9686;48.832;9.126;2022-07-23T06:31:01;4.70;;;4.30;;
19107;SDS011;9686;48.832;9.126;2022-07-23T06:33:27;5.57;;;4.50;;
19107;SDS011;9686;48.832;9.126;2022-07-23T06:35:52;6.97;;;4.70;;
19107;SDS011;9686;48.832;9.126;2022-07-23T06:38:17;5.20;;;4.70;;
19107;SDS011;9686;48.832;9.126;2022-07-23T06:40:43;5.33;;;4.83;;
19107;SDS011;9686;48.832;9.126;2022-07-23T06:43:09;7.53;;;4.90;;
19107;SDS011;9686;48.832;9.126;2022-07-23T06:45:35;7.57;;;4.90;;
19107;SDS011;9686;48.832;9.126;2022-07-23T06:48:00;6.47;;;4.93;;
19107;SDS011;9686;48.832;9.126;2022-07-23T06:50:27;5.87;;;4.87;;
19107;SDS011;9686;48.832;9.126;2022-07-23T06:52:53;5.97;;;5.37;;
19107;SDS011;9686;48.832;9.126;2022-07-23T06:55:18;5.60;;;5.10;;
19107;SDS011;9686;48.832;9.126;2022-07-23T06:57:43;6.30;;;5.20;;
19107;SDS011;9686;48.832;9.126;2022-07-23T07:00:09;6.40;;;4.53;;
19107;SDS011;9686;48.832;9.126;2022-07-23T07:02:35;5.67;;;5.17;;
19107;SDS011;9686;48.832;9.126;2022-07-23T07:05:00;9.67;;;5.50;;
19107;SDS011;9686;48.832;9.126;2022-07-23T07:07:26;5.33;;;4.83;;
19107;SDS011;9686;48.832;9.126;2022-07-23T07:09:51;6.57;;;5.47;;
19107;SDS011;9686;48.832;9.126;2022-07-23T07:12:16;7.70;;;5.30;;
19107;SDS011;9686;48.832;9.126;2022-07-23T07:14:42;6.33;;;5.03;;
19107;SDS011;9686;48.832;9.126;2022-07-23T07:17:07;4.93;;;4.43;;
19107;SDS011;9686;48.832;9.126;2022-07-23T07:19:33;5.50;;;5.00;;
19107;SDS011;9686;48.832;9.126;2022-07-23T07:21:58;7.73;;;4.90;;
19107;SDS011;9686;48.832;9.126;2022-07-23T07:24:24;6.10;;;5.50;;
19107;SDS011;9686;48.832;9.126;2022-07-23T07:26:49;5.97;;;5.40;;
19107;SDS011;9686;48.832;9.126;2022-07-23T07:29:14;5.60;;;5.10;;
19107;SDS011;9686;48.832;9.126;2022-07-23T07:31:40;6.87;;;6.17;;
19107;SDS011;9686;48.832;9.126;2022-07-23T07:34:05;6.70;;;5.70;;
19107;SDS011;9686;48.832;9.126;2022-07-23T07:36:30;6.67;;;6.07;;
19107;SDS011;9686;48.832;9.126;2022-07-23T07:38:56;6.40;;;5.87;;
19107;SDS011;9686;48.832;9.126;2022-07-23T07:41:21;6.27;;;5.67;;
19107;SDS011;9686;48.832;9.126;2022-07-23T07:43:51;7.20;;;6.30;;
19107;SDS011;9686;48.832;9.126;2022-07-23T07:46:16;6.93;;;6.03;;
19107;SDS011;9686;48.832;9.126;2022-07-23T07:48:42;7.70;;;5.77;;
19107;SDS011;9686;48.832;9.126;2022-07-23T07:51:07;7.43;;;6.60;;
19107;SDS011;9686;48.832;9.126;2022-07-23T07:53:33;7.50;;;6.80;;
19107;SDS011;9686;48.832;9.126;2022-07-23T07:55:58;6.80;;;5.93;;
19107;SDS011;9686;48.832;9.126;2022-07-23T07:58:23;7.27;;;6.53;;
19107;SDS011;9686;48.832;9.126;2022-07-23T08:00:49;7.30;;;6.27;;
19107;SDS011;9686;48.832;9.126;2022-07-23T08:03:14;7.03;;;6.00;;
19107;SDS011;9686;48.832;9.126;2022-07-23T08:05:39;7.03;;;6.03;;
19107;SDS011;9686;48.832;9.126;2022-07-23T08:08:05;6.50;;;5.80;;
19107;SDS011;9686;48.832;9.126;2022-07-23T08:10:30;6.10;;;5.50;;
19107;SDS011;9686;48.832;9.126;2022-07-23T08:12:56;6.70;;;5.80;;
19107;SDS011;9686;48.832;9.126;2022-07-23T08:15:23;6.50;;;5.90;;
19107;SDS011;9686;48.832;9.126;2022-07-23T08:17:49;7.27;;;5.13;;
19107;SDS011;9686;48.832;9.126;2022-07-23T08:20:16;6.23;;;5.63;;
19107;SDS011;9686;48.832;9.126;2022-07-23T08:25:13;7.07;;;5.60;;
19107;SDS011;9686;48.832;9.126;2022-07-23T08:27:40;7.30;;;5.90;;
19107;SDS011;9686;48.832;9.126;2022-07-23T08:30:06;9.13;;;5.90;;
19107;SDS011;9686;48.832;9.126;2022-07-23T08:32:32;5.30;;;4.80;;
19107;SDS011;9686;48.832;9.126;2022-07-23T08:34:57;6.30;;;5.70;;
19107;SDS011;9686;48.832;9.126;2022-07-23T08:37:23;6.53;;;5.00;;
19107;SDS011;9686;48.832;9.126;2022-07-23T08:39:48;5.67;;;5.13;;
19107;SDS011;9686;48.832;9.126;2022-07-23T08:42:13;5.27;;;4.77;;
19107;SDS011;9686;48.832;9.126;2022-07-23T08:44:40;5.87;;;4.80;;
19107;SDS011;9686;48.832;9.126;2022-07-23T08:47:10;4.70;;;4.30;;
19107;SDS011;9686;48.832;9.126;2022-07-23T08:49:37;5.43;;;4.93;;
19107;SDS011;9686;48.832;9.126;2022-07-23T08:52:04;7.17;;;5.20;;
19107;SDS011;9686;48.832;9.126;2022-07-23T08:54:30;5.00;;;4.50;;
19107;SDS011;9686;48.832;9.126;2022-07-23T08:56:56;4.97;;;4.57;;
19107;SDS011;9686;48.832;9.126;2022-07-23T08:59:22;4.93;;;4.20;;
19107;SDS011;9686;48.832;9.126;2022-07-23T09:01:47;5.03;;;4.10;;
19107;SDS011;9686;48.832;9.126;2022-07-23T09:04:12;5.23;;;4.73;;
19107;SDS011;9686;48.832;9.126;2022-07-23T09:06:40;5.50;;;4.87;;
19107;SDS011;9686;48.832;9.126;2022-07-23T09:09:17;5.63;;;5.07;;
19107;SDS011;9686;48.832;9.126;2022-07-23T09:11:47;5.70;;;4.27;;
19107;SDS011;9686;48.832;9.126;2022-07-23T09:14:39;4.60;;;4.20;;
19107;SDS011;9686;48.832;9.126;2022-07-23T09:17:14;5.13;;;4.70;;
19107;SDS011;9686;48.832;9.126;2022-07-23T09:19:41;5.20;;;4.60;;
19107;SDS011;9686;48.832;9.126;2022-07-23T09:22:23;5.00;;;4.50;;
19107;SDS011;9686;48.832;9.126;2022-07-23T09:25:16;4.80;;;4.00;;
19107;SDS011;9686;48.832;9.126;2022-07-23T09:27:56;5.13;;;4.30;;
19107;SDS011;9686;48.832;9.126;2022-07-23T09:30:26;4.90;;;4.13;;
19107;SDS011;9686;48.832;9.126;2022-07-23T09:38:13;6.13;;;4.50;;
19107;SDS011;9686;48.832;9.126;2022-07-23T09:40:39;4.77;;;4.37;;
19107;SDS011;9686;48.832;9.126;2022-07-23T09:43:05;5.10;;;4.53;;
19107;SDS011;9686;48.832;9.126;2022-07-23T09:45:30;5.50;;;4.40;;
19107;SDS011;9686;48.832;9.126;2022-07-23T09:48:11;4.60;;;3.90;;
19107;SDS011;9686;48.832;9.126;2022-07-23T09:50:42;4.80;;;4.27;;
19107;SDS011;9686;48.832;9.126;2022-07-23T09:53:08;4.80;;;4.40;;
19107;SDS011;9686;48.832;9.126;2022-07-23T09:55:35;4.80;;;4.40;;
19107;SDS011;9686;48.832;9.126;2022-07-23T09:58:07;5.30;;;4.80;;
19107;SDS011;9686;48.832;9.126;2022-07-23T10:00:42;5.33;;;4.47;;
19107;SDS011;9686;48.832;9.126;2022-07-23T10:03:09;4.30;;;3.90;;
19107;SDS011;9686;48.832;9.126;2022-07-23T10:05:36;5.07;;;4.57;;
19107;SDS011;9686;48.832;9.126;2022-07-23T10:08:02;5.07;;;4.30;;
19107;SDS011;9686;48.832;9.126;2022-07-23T10:10:28;4.57;;;4.18;;
19107;SDS011;9686;48.832;9.126;2022-07-23T10:12:55;4.30;;;3.90;;
19107;SDS011;9686;48.832;9.126;2022-07-23T10:15:24;4.90;;;4.27;;
19107;SDS011;9686;48.832;9.126;2022-07-23T10:17:50;5.13;;;4.63;;
19107;SDS011;9686;48.832;9.126;2022-07-23T10:20:16;5.57;;;4.43;;
19107;SDS011;9686;48.832;9.126;2022-07-23T10:22:45;5.10;;;4.50;;
19107;SDS011;9686;48.832;9.126;2022-07-23T10:25:23;5.40;;;4.90;;
19107;SDS011;9686;48.832;9.126;2022-07-23T10:28:20;5.30;;;4.80;;
19107;SDS011;9686;48.832;9.126;2022-07-23T10:31:10;5.65;;;4.63;;
19107;SDS011;9686;48.832;9.126;2022-07-23T10:41:40;5.47;;;4.93;;
19107;SDS011;9686;48.832;9.126;2022-07-23T10:44:10;4.65;;;4.18;;
19107;SDS011;9686;48.832;9.126;2022-07-23T10:49:26;4.40;;;4.00;;
19107;SDS011;9686;48.832;9.126;2022-07-23T10:54:54;4.25;;;3.88;;
19107;SDS011;9686;48.832;9.126;2022-07-23T10:57:26;5.32;;;4.35;;
19107;SDS011;9686;48.832;9.126;2022-07-23T11:02:40;6.55;;;4.70;;
19107;SDS011;9686;48.832;9.126;2022-07-23T11:05:08;6.90;;;4.32;;
19107;SDS011;9686;48.832;9.126;2022-07-23T11:07:36;4.80;;;4.40;;
19107;SDS011;9686;48.832;9.126;2022-07-23T11:10:34;5.00;;;4.50;;
19107;SDS011;9686;48.832;9.126;2022-07-23T11:19:11;5.00;;;4.50;;
19107;SDS011;9686;48.832;9.126;2022-07-23T11:24:06;4.82;;;4.30;;
19107;SDS011;9686;48.832;9.126;2022-07-23T11:37:04;5.90;;;4.78;;
19107;SDS011;9686;48.832;9.126;2022-07-23T11:39:32;4.80;;;4.40;;
19107;SDS011;9686;48.832;9.126;2022-07-23T11:41:58;5.10;;;4.70;;
19107;SDS011;9686;48.832;9.126;2022-07-23T11:44:46;5.25;;;4.47;;
19107;SDS011;9686;48.832;9.126;2022-07-23T11:47:11;5.05;;;4.65;;
19107;SDS011;9686;48.832;9.126;2022-07-23T11:49:38;5.45;;;4.95;;
19107;SDS011;9686;48.832;9.126;2022-07-23T11:52:08;8.30;;;4.72;;
19107;SDS011;9686;48.832;9.126;2022-07-23T11:54:37;5.55;;;5.07;;
19107;SDS011;9686;48.832;9.126;2022-07-23T11:57:12;5.45;;;4.95;;
19107;SDS011;9686;48.832;9.126;2022-07-23T11:59:37;4.88;;;4.47;;
19107;SDS011;9686;48.832;9.126;2022-07-23T12:02:05;6.13;;;4.60;;
19107;SDS011;9686;48.832;9.126;2022-07-23T12:04:38;4.82;;;4.43;;
19107;SDS011;9686;48.832;9.126;2022-07-23T12:07:04;5.22;;;4.72;;
19107;SDS011;9686;48.832;9.126;2022-07-23T12:09:47;5.10;;;4.70;;
19107;SDS011;9686;48.832;9.126;2022-07-23T12:12:12;5.60;;;4.95;;
19107;SDS011;9686;48.832;9.126;2022-07-23T12:14:46;4.85;;;4.45;;
19107;SDS011;9686;48.832;9.126;2022-07-23T12:17:18;5.05;;;4.65;;
19107;SDS011;9686;48.832;9.126;2022-07-23T12:19:45;5.13;;;4.72;;
19107;SDS011;9686;48.832;9.126;2022-07-23T12:22:11;5.38;;;4.82;;
19107;SDS011;9686;48.832;9.126;2022-07-23T12:24:52;5.55;;;5.05;;
19107;SDS011;9686;48.832;9.126;2022-07-23T12:27:21;5.35;;;4.85;;
19107;SDS011;9686;48.832;9.126;2022-07-23T12:29:48;5.68;;;5.18;;
19107;SDS011;9686;48.832;9.126;2022-07-23T12:32:17;6.45;;;5.60;;
19107;SDS011;9686;48.832;9.126;2022-07-23T12:34:43;6.10;;;5.50;;
19107;SDS011;9686;48.832;9.126;2022-07-23T12:37:32;5.55;;;5.03;;
19107;SDS011;9686;48.832;9.126;2022-07-23T12:42:44;6.65;;;4.70;;
19107;SDS011;9686;48.832;9.126;2022-07-23T12:45:10;4.72;;;4.32;;
19107;SDS011;9686;48.832;9.126;2022-07-23T12:53:29;5.60;;;4.95;;
19107;SDS011;9686;48.832;9.126;2022-07-23T12:58:39;5.28;;;4.78;;
19107;SDS011;9686;48.832;9.126;2022-07-23T13:03:53;5.65;;;5.05;;
19107;SDS011;9686;48.832;9.126;2022-07-23T13:06:41;6.55;;;5.55;;
19107;SDS011;9686;48.832;9.126;2022-07-23T13:09:09;6.10;;;5.05;;
19107;SDS011;9686;48.832;9.126;2022-07-23T13:11:38;5.50;;;4.90;;
19107;SDS011;9686;48.832;9.126;2022-07-23T13:14:04;4.78;;;4.13;;
19107;SDS011;9686;48.832;9.126;2022-07-23T13:16:29;5.57;;;4.93;;
19107;SDS011;9686;48.832;9.126;2022-07-23T13:18:56;5.07;;;4.68;;
19107;SDS011;9686;48.832;9.126;2022-07-23T13:21:23;5.53;;;5.03;;
19107;SDS011;9686;48.832;9.126;2022-07-23T13:23:48;5.75;;;5.22;;
19107;SDS011;9686;48.832;9.126;2022-07-23T13:26:14;5.82;;;5.32;;
19107;SDS011;9686;48.832;9.126;2022-07-23T13:28:39;7.78;;;6.05;;
19107;SDS011;9686;48.832;9.126;2022-07-23T13:31:05;6.18;;;5.60;;
19107;SDS011;9686;48.832;9.126;2022-07-23T13:33:30;7.47;;;5.85;;
19107;SDS011;9686;48.832;9.126;2022-07-23T13:35:55;6.05;;;5.20;;
19107;SDS011;9686;48.832;9.126;2022-07-23T13:38:21;5.55;;;5.05;;
19107;SDS011;9686;48.832;9.126;2022-07-23T13:40:49;6.82;;;6.22;;
19107;SDS011;9686;48.832;9.126;2022-07-23T13:43:15;6.65;;;6.10;;
19107;SDS011;9686;48.832;9.126;2022-07-23T13:45:42;6.90;;;6.30;;
19107;SDS011;9686;48.832;9.126;2022-07-23T13:48:09;6.13;;;5.53;;
19107;SDS011;9686;48.832;9.126;2022-07-23T13:50:35;6.13;;;5.53;;
19107;SDS011;9686;48.832;9.126;2022-07-23T13:53:06;5.88;;;5.38;;
19107;SDS011;9686;48.832;9.126;2022-07-23T13:55:39;6.30;;;4.95;;
19107;SDS011;9686;48.832;9.126;2022-07-23T13:58:06;6.07;;;5.57;;
19107;SDS011;9686;48.832;9.126;2022-07-23T14:00:33;6.15;;;5.65;;
19107;SDS011;9686;48.832;9.126;2022-07-23T14:03:00;6.25;;;5.65;;
19107;SDS011;9686;48.832;9.126;2022-07-23T14:05:25;5.43;;;5.03;;
19107;SDS011;9686;48.832;9.126;2022-07-23T14:07:51;6.25;;;5.65;;
19107;SDS011;9686;48.832;9.126;2022-07-23T14:10:18;5.97;;;5.45;;
19107;SDS011;9686;48.832;9.126;2022-07-23T14:12:45;5.85;;;5.35;;
19107;SDS011;9686;48.832;9.126;2022-07-23T14:15:11;7.82;;;5.28;;
19107;SDS011;9686;48.832;9.126;2022-07-23T14:17:38;5.90;;;5.40;;
19107;SDS011;9686;48.832;9.126;2022-07-23T14:20:06;5.97;;;5.38;;
19107;SDS011;9686;48.832;9.126;2022-07-23T14:22:32;5.85;;;5.25;;
19107;SDS011;9686;48.832;9.126;2022-07-23T14:24:58;5.90;;;5.40;;
19107;SDS011;9686;48.832;9.126;2022-07-23T14:27:24;5.60;;;5.10;;
19107;SDS011;9686;48.832;9.126;2022-07-23T14:29:50;5.47;;;4.97;;
19107;SDS011;9686;48.832;9.126;2022-07-23T14:32:17;5.97;;;5.47;;
19107;SDS011;9686;48.832;9.126;2022-07-23T14:34:42;5.55;;;5.05;;
19107;SDS011;9686;48.832;9.126;2022-07-23T14:37:09;7.53;;;5.32;;
19107;SDS011;9686;48.832;9.126;2022-07-23T14:39:35;6.30;;;5.00;;
19107;SDS011;9686;48.832;9.126;2022-07-23T14:42:01;5.35;;;4.88;;
19107;SDS011;9686;48.832;9.126;2022-07-23T14:44:26;5.75;;;5.15;;
19107;SDS011;9686;48.832;9.126;2022-07-23T14:46:51;5.82;;;5.22;;
19107;SDS011;9686;48.832;9.126;2022-07-23T14:49:17;5.95;;;5.45;;
19107;SDS011;9686;48.832;9.126;2022-07-23T14:51:43;6.05;;;5.15;;
19107;SDS011;9686;48.832;9.126;2022-07-23T14:54:09;5.95;;;5.07;;
19107;SDS011;9686;48.832;9.126;2022-07-23T14:56:35;5.55;;;5.05;;
19107;SDS011;9686;48.832;9.126;2022-07-23T14:59:01;6.03;;;5.32;;
19107;SDS011;9686;48.832;9.126;2022-07-23T15:01:28;6.18;;;5.47;;
19107;SDS011;9686;48.832;9.126;2022-07-23T15:03:53;5.93;;;5.32;;
19107;SDS011;9686;48.832;9.126;2022-07-23T15:06:18;6.82;;;5.68;;
19107;SDS011;9686;48.832;9.126;2022-07-23T15:08:44;6.13;;;5.25;;
19107;SDS011;9686;48.832;9.126;2022-07-23T15:11:09;6.00;;;5.47;;
19107;SDS011;9686;48.832;9.126;2022-07-23T15:13:35;6.55;;;5.40;;
19107;SDS011;9686;48.832;9.126;2022-07-23T15:16:01;6.13;;;5.53;;
19107;SDS011;9686;48.832;9.126;2022-07-23T15:18:27;6.07;;;5.57;;
19107;SDS011;9686;48.832;9.126;2022-07-23T15:20:53;6.53;;;5.43;;
19107;SDS011;9686;48.832;9.126;2022-07-23T15:23:18;8.93;;;5.63;;
19107;SDS011;9686;48.832;9.126;2022-07-23T15:25:44;5.70;;;5.20;;
19107;SDS011;9686;48.832;9.126;2022-07-23T15:28:09;7.15;;;5.55;;
19107;SDS011;9686;48.832;9.126;2022-07-23T15:30:35;6.07;;;5.43;;
19107;SDS011;9686;48.832;9.126;2022-07-23T15:33:00;5.75;;;5.25;;
19107;SDS011;9686;48.832;9.126;2022-07-23T15:35:25;6.38;;;5.30;;
19107;SDS011;9686;48.832;9.126;2022-07-23T15:37:51;6.32;;;5.40;;
19107;SDS011;9686;48.832;9.126;2022-07-23T15:40:16;7.45;;;5.18;;
19107;SDS011;9686;48.832;9.126;2022-07-23T15:42:41;5.18;;;4.78;;
19107;SDS011;9686;48.832;9.126;2022-07-23T15:45:07;5.60;;;5.10;;
19107;SDS011;9686;48.832;9.126;2022-07-23T15:47:33;5.88;;;5.07;;
19107;SDS011;9686;48.832;9.126;2022-07-23T15:49:58;6.07;;;5.57;;
19107;SDS011;9686;48.832;9.126;2022-07-23T15:52:23;7.55;;;5.65;;
19107;SDS011;9686;48.832;9.126;2022-07-23T15:54:49;6.47;;;5.78;;
19107;SDS011;9686;48.832;9.126;2022-07-23T15:57:15;6.40;;;5.80;;